createdAt,value
2018-12-19T00:01:33.611Z,29.70
2018-12-19T00:04:01.784Z,25.53
2018-12-19T00:06:30.004Z,29.07
2018-12-19T00:09:03.141Z,35.00
2018-12-19T00:11:28.331Z,40.57
2018-12-19T00:13:56.507Z,32.43
2018-12-19T00:16:24.668Z,30.50
2018-12-19T00:18:52.835Z,34.37
2018-12-19T00:21:20.999Z,39.40
2018-12-19T00:23:49.471Z,57.20
2018-12-19T00:26:17.632Z,35.40
2018-12-19T00:28:45.800Z,31.77
2018-12-19T00:31:14.047Z,35.87
2018-12-19T00:33:42.207Z,36.07
2018-12-19T00:36:10.384Z,36.13
2018-12-19T00:38:38.640Z,37.53
2018-12-19T00:41:06.803Z,32.07
2018-12-19T00:43:34.987Z,36.43
2018-12-19T00:46:03.165Z,36.13
2018-12-19T00:48:31.327Z,33.50
2018-12-19T00:50:59.492Z,36.50
2018-12-19T00:53:27.660Z,33.17
2018-12-19T00:55:55.827Z,34.67
2018-12-19T00:58:24.004Z,34.93
2018-12-19T01:00:52.167Z,34.37
2018-12-19T01:03:20.340Z,28.03
2018-12-19T01:05:48.576Z,33.33
2018-12-19T01:08:16.885Z,29.93
2018-12-19T01:10:45.067Z,31.07
2018-12-19T01:13:13.243Z,33.53
2018-12-19T01:15:41.411Z,30.63
2018-12-19T01:18:09.571Z,36.80
2018-12-19T01:20:37.740Z,35.53
2018-12-19T01:23:05.914Z,34.83
2018-12-19T01:25:34.077Z,33.70
2018-12-19T01:28:02.245Z,36.10
2018-12-19T01:30:30.409Z,33.33
2018-12-19T01:32:58.587Z,29.90
2018-12-19T01:35:26.753Z,28.03
2018-12-19T01:37:54.916Z,36.57
2018-12-19T01:40:23.159Z,28.50
2018-12-19T01:42:51.325Z,32.57
2018-12-19T01:45:19.576Z,29.90
2018-12-19T01:47:47.919Z,30.60
2018-12-19T01:50:16.072Z,31.83
2018-12-19T01:52:44.239Z,30.87
2018-12-19T01:55:12.408Z,33.60
2018-12-19T01:57:40.575Z,32.33
2018-12-19T02:00:08.834Z,31.17
2018-12-19T02:02:37.007Z,30.73
2018-12-19T02:05:05.351Z,37.03
2018-12-19T02:07:33.515Z,30.67
2018-12-19T02:10:01.766Z,31.90
2018-12-19T02:12:29.939Z,32.27
2018-12-19T02:14:58.111Z,34.37
2018-12-19T02:17:26.271Z,27.20
2018-12-19T02:19:54.524Z,34.83
2018-12-19T02:22:22.820Z,34.70
2018-12-19T02:24:50.988Z,34.03
2018-12-19T02:27:19.173Z,35.77
2018-12-19T02:29:47.373Z,31.70
2018-12-19T02:32:15.548Z,27.33
2018-12-19T02:34:43.745Z,30.90
2018-12-19T02:37:12.004Z,30.50
2018-12-19T02:39:40.223Z,30.30
2018-12-19T02:42:08.399Z,39.37
2018-12-19T02:44:36.600Z,31.47
2018-12-19T02:47:04.792Z,32.83
2018-12-19T02:49:32.977Z,29.67
2018-12-19T02:52:01.156Z,31.93
2018-12-19T02:54:29.349Z,36.13
2018-12-19T02:56:57.530Z,35.83
2018-12-19T02:59:25.765Z,32.40
2018-12-19T03:01:53.944Z,35.07
2018-12-19T03:04:22.135Z,35.60
2018-12-19T03:06:50.319Z,37.97
2018-12-19T03:09:18.545Z,35.00
2018-12-19T03:11:46.724Z,32.77
2018-12-19T03:14:14.939Z,36.90
2018-12-19T03:16:43.111Z,33.70
2018-12-19T03:19:11.304Z,35.03
2018-12-19T03:21:39.488Z,35.30
2018-12-19T03:24:07.672Z,38.93
2018-12-19T03:26:35.884Z,36.93
2018-12-19T03:29:04.156Z,31.40
2018-12-19T03:31:32.356Z,36.40
2018-12-19T03:34:00.615Z,35.90
2018-12-19T03:36:28.810Z,38.23
2018-12-19T03:38:56.992Z,37.67
2018-12-19T03:41:25.192Z,35.57
2018-12-19T03:43:53.376Z,31.00
2018-12-19T03:46:21.570Z,36.53
2018-12-19T03:48:55.195Z,37.93
2018-12-19T03:51:23.492Z,41.13
2018-12-19T03:53:51.724Z,38.87
2018-12-19T03:56:19.951Z,34.30
2018-12-19T03:58:48.219Z,40.27
2018-12-19T04:01:16.398Z,37.33
2018-12-19T04:03:44.587Z,34.10
2018-12-19T04:06:12.769Z,35.57
2018-12-19T04:08:41.040Z,33.80
2018-12-19T04:11:09.216Z,33.07
2018-12-19T04:13:37.577Z,33.47
2018-12-19T04:16:05.764Z,31.50
2018-12-19T04:18:34.031Z,39.47
2018-12-19T04:21:02.236Z,29.43
2018-12-19T04:23:30.540Z,34.87
2018-12-19T04:25:58.725Z,31.07
2018-12-19T04:28:27.100Z,30.47
2018-12-19T04:30:55.313Z,28.67
2018-12-19T04:33:23.472Z,33.23
2018-12-19T04:35:51.952Z,26.47
2018-12-19T04:38:20.140Z,26.40
2018-12-19T04:40:48.354Z,28.73
2018-12-19T04:43:16.528Z,32.97
2018-12-19T04:45:44.803Z,25.37
2018-12-19T04:48:13.156Z,28.70
2018-12-19T04:50:41.336Z,21.60
2018-12-19T04:53:09.522Z,24.90
2018-12-19T04:55:37.701Z,23.40
2018-12-19T04:58:05.876Z,25.63
2018-12-19T05:00:34.154Z,22.23
2018-12-19T05:03:02.327Z,28.23
2018-12-19T05:05:30.515Z,24.93
2018-12-19T05:07:58.785Z,23.07
2018-12-19T05:10:27.053Z,16.97
2018-12-19T05:12:55.232Z,19.87
2018-12-19T05:15:23.428Z,19.27
2018-12-19T05:17:51.610Z,21.93
2018-12-19T05:20:19.796Z,24.10
2018-12-19T05:22:47.973Z,19.93
2018-12-19T05:25:16.160Z,25.83
2018-12-19T05:27:44.351Z,23.80
2018-12-19T05:30:12.612Z,19.90
2018-12-19T05:32:40.812Z,14.90
2018-12-19T05:35:09.162Z,19.23
2018-12-19T05:37:37.340Z,20.07
2018-12-19T05:40:07.237Z,18.37
2018-12-19T05:42:35.415Z,17.80
2018-12-19T05:45:04.604Z,13.70
2018-12-19T05:47:32.793Z,18.60
2018-12-19T05:50:01.105Z,20.17
2018-12-19T05:52:29.476Z,18.90
2018-12-19T05:54:57.752Z,17.57
2018-12-19T05:57:26.123Z,16.30
2018-12-19T05:59:54.304Z,17.33
2018-12-19T06:02:22.475Z,14.30
2018-12-19T06:04:50.660Z,15.60
2018-12-19T06:07:18.843Z,14.37
2018-12-19T06:09:47.112Z,14.20
2018-12-19T06:12:15.379Z,15.73
2018-12-19T06:14:43.570Z,12.90
2018-12-19T06:17:11.741Z,14.47
2018-12-19T06:19:39.975Z,16.93
2018-12-19T06:22:08.148Z,34.73
2018-12-19T06:24:36.331Z,14.20
2018-12-19T06:27:04.600Z,10.60
2018-12-19T06:29:32.809Z,15.83
2018-12-19T06:32:00.989Z,17.87
2018-12-19T06:34:29.164Z,14.43
2018-12-19T06:36:57.345Z,20.43
2018-12-19T06:39:25.616Z,17.33
2018-12-19T06:41:53.800Z,19.80
2018-12-19T06:44:22.068Z,16.20
2018-12-19T06:46:50.263Z,18.93
2018-12-19T06:49:18.459Z,15.07
2018-12-19T06:51:46.716Z,16.40
2018-12-19T06:54:14.888Z,15.07
2018-12-19T06:56:43.077Z,15.23
2018-12-19T06:59:11.252Z,14.53
2018-12-19T07:01:39.432Z,14.37
2018-12-19T07:04:07.608Z,13.90
2018-12-19T07:06:35.792Z,16.07
2018-12-19T07:09:06.888Z,20.00
2018-12-19T07:11:35.100Z,17.10
2018-12-19T07:14:03.558Z,18.80
2018-12-19T07:16:31.740Z,14.97
2018-12-19T07:18:59.911Z,13.43
2018-12-19T07:21:28.096Z,23.03
2018-12-19T07:23:56.273Z,15.20
2018-12-19T07:26:24.592Z,16.40
2018-12-19T07:28:52.767Z,16.27
2018-12-19T07:31:20.951Z,18.00
2018-12-19T07:33:49.137Z,15.33
2018-12-19T07:36:17.325Z,18.40
2018-12-19T07:38:45.500Z,14.43
2018-12-19T07:41:13.763Z,15.10
2018-12-19T07:43:41.944Z,13.90
2018-12-19T07:46:10.123Z,16.47
2018-12-19T07:48:38.692Z,16.17
2018-12-19T07:51:06.980Z,12.83
2018-12-19T07:53:35.156Z,15.80
2018-12-19T07:56:03.763Z,16.40
2018-12-19T07:58:31.944Z,14.17
2018-12-19T08:01:00.128Z,11.00
2018-12-19T08:03:28.404Z,14.70
2018-12-19T08:05:56.583Z,12.60
2018-12-19T08:08:24.763Z,11.93
2018-12-19T08:10:52.941Z,14.23
2018-12-19T08:13:21.120Z,12.60
2018-12-19T08:15:49.299Z,14.50
2018-12-19T08:18:17.471Z,13.07
2018-12-19T08:20:45.659Z,11.40
2018-12-19T08:23:13.837Z,12.50
2018-12-19T08:25:42.020Z,13.37
2018-12-19T08:28:10.205Z,12.80
2018-12-19T08:30:38.389Z,15.90
2018-12-19T08:33:06.567Z,14.83
2018-12-19T08:35:34.756Z,13.93
2018-12-19T08:38:02.933Z,15.37
2018-12-19T08:40:31.109Z,13.77
2018-12-19T08:42:59.276Z,18.27
2018-12-19T08:45:27.780Z,25.83
2018-12-19T08:47:55.952Z,21.10
2018-12-19T08:50:24.168Z,24.23
2018-12-19T08:52:52.345Z,21.83
2018-12-19T08:55:20.575Z,20.93
2018-12-19T08:57:48.765Z,26.00
2018-12-19T09:00:17.050Z,19.37
2018-12-19T09:02:45.232Z,23.40
2018-12-19T09:05:13.424Z,21.20
2018-12-19T09:07:41.615Z,15.40
2018-12-19T09:10:10.713Z,19.47
2018-12-19T09:12:38.900Z,20.23
2018-12-19T09:15:07.796Z,16.83
2018-12-19T09:17:35.992Z,25.20
2018-12-19T09:20:04.905Z,118.70
2018-12-19T09:22:33.221Z,67.40
2018-12-19T09:25:01.434Z,40.47
2018-12-19T09:27:29.760Z,40.70
2018-12-19T09:29:57.931Z,36.03
2018-12-19T09:32:26.136Z,35.50
2018-12-19T09:34:54.322Z,41.97
2018-12-19T09:37:22.578Z,48.03
2018-12-19T09:39:50.756Z,25.10
2018-12-19T09:42:19.025Z,25.60
2018-12-19T09:44:47.200Z,23.77
2018-12-19T09:47:15.393Z,20.30
2018-12-19T09:49:43.577Z,18.37
2018-12-19T09:52:11.765Z,25.90
2018-12-19T09:54:39.955Z,25.27
2018-12-19T09:57:08.135Z,17.33
2018-12-19T09:59:36.330Z,14.83
2018-12-19T10:02:05.009Z,24.10
2018-12-19T10:04:33.304Z,19.03
2018-12-19T10:07:01.487Z,21.03
2018-12-19T10:09:29.709Z,21.70
2018-12-19T10:11:57.899Z,18.30
2018-12-19T10:14:26.092Z,19.10
2018-12-19T10:16:54.300Z,18.27
2018-12-19T10:19:22.484Z,21.20
2018-12-19T10:21:50.765Z,21.60
2018-12-19T10:24:20.938Z,20.50
2018-12-19T10:26:49.192Z,23.03
2018-12-19T10:29:17.377Z,20.90
2018-12-19T10:31:45.560Z,22.70
2018-12-19T10:34:13.740Z,32.07
2018-12-19T10:36:41.932Z,31.00
2018-12-19T10:39:16.555Z,27.43
2018-12-19T10:41:44.739Z,17.37
2018-12-19T10:44:13.317Z,20.60
2018-12-19T10:46:41.593Z,23.13
2018-12-19T10:49:09.813Z,20.00
2018-12-19T10:51:38.000Z,23.90
2018-12-19T10:54:06.183Z,22.70
2018-12-19T10:56:34.360Z,23.27
2018-12-19T10:59:02.548Z,19.37
2018-12-19T11:01:30.776Z,18.40
2018-12-19T11:03:58.984Z,20.40
2018-12-19T11:06:27.178Z,18.30
2018-12-19T11:08:55.352Z,20.70
2018-12-19T11:11:23.533Z,21.13
2018-12-19T11:13:51.824Z,33.40
2018-12-19T11:16:20.004Z,26.27
2018-12-19T11:18:48.192Z,19.93
2018-12-19T11:21:16.368Z,17.13
2018-12-19T11:23:44.565Z,18.27
2018-12-19T11:26:12.744Z,19.67
2018-12-19T11:28:40.928Z,22.67
2018-12-19T11:31:09.112Z,23.80
2018-12-19T11:33:37.300Z,23.50
2018-12-19T11:36:05.580Z,21.17
2018-12-19T11:38:33.772Z,17.77
2018-12-19T11:41:01.944Z,21.30
2018-12-19T11:43:30.127Z,23.30
2018-12-19T11:45:58.325Z,17.50
2018-12-19T11:48:26.500Z,25.90
2018-12-19T11:50:54.676Z,21.37
2018-12-19T11:53:22.867Z,20.43
2018-12-19T11:55:51.044Z,16.93
2018-12-19T11:58:19.228Z,19.67
2018-12-19T12:00:47.592Z,22.77
2018-12-19T12:03:15.785Z,22.90
2018-12-19T12:05:43.978Z,20.20
2018-12-19T12:08:12.255Z,22.90
2018-12-19T12:10:40.460Z,17.87
2018-12-19T12:13:08.660Z,21.13
2018-12-19T12:15:36.844Z,22.75
2018-12-19T12:18:05.031Z,19.00
2018-12-19T12:20:33.232Z,20.50
2018-12-19T12:23:01.421Z,22.85
2018-12-19T12:25:29.607Z,27.35
2018-12-19T12:27:57.799Z,24.85
2018-12-19T12:30:26.000Z,17.77
2018-12-19T12:32:54.199Z,23.20
2018-12-19T12:35:22.464Z,21.40
2018-12-19T12:37:50.657Z,20.72
2018-12-19T12:40:18.845Z,20.65
2018-12-19T12:42:47.152Z,26.25
2018-12-19T12:45:18.024Z,20.05
2018-12-19T12:47:46.208Z,25.43
2018-12-19T12:50:14.389Z,23.65
2018-12-19T12:52:42.596Z,21.52
2018-12-19T12:55:10.784Z,20.32
2018-12-19T12:57:39.076Z,19.67
2018-12-19T13:00:07.626Z,21.62
2018-12-19T13:02:35.843Z,21.17
2018-12-19T13:05:04.452Z,22.98
2018-12-19T13:07:32.641Z,20.70
2018-12-19T13:10:00.848Z,20.52
2018-12-19T13:12:29.122Z,18.87
2018-12-19T13:14:57.324Z,19.13
2018-12-19T13:17:25.511Z,19.73
2018-12-19T13:19:53.720Z,19.17
2018-12-19T13:22:22.068Z,18.62
2018-12-19T13:24:50.308Z,21.25
2018-12-19T13:27:18.497Z,18.67
2018-12-19T13:29:46.816Z,27.22
2018-12-19T13:32:15.136Z,21.52
2018-12-19T13:34:43.341Z,21.95
2018-12-19T13:37:11.529Z,43.35
2018-12-19T13:39:39.791Z,40.03
2018-12-19T13:42:07.980Z,27.67
2018-12-19T13:44:36.196Z,28.95
2018-12-19T13:47:04.399Z,23.98
2018-12-19T13:49:32.607Z,23.80
2018-12-19T13:52:00.853Z,25.85
2018-12-19T13:54:29.090Z,33.90
2018-12-19T13:56:57.279Z,19.00
2018-12-19T13:59:25.493Z,17.60
2018-12-19T14:01:53.668Z,90.00
2018-12-19T14:04:22.048Z,46.63
2018-12-19T14:06:50.246Z,30.75
2018-12-19T14:09:18.452Z,31.93
2018-12-19T14:11:46.651Z,34.73
2018-12-19T14:14:14.867Z,31.25
2018-12-19T14:16:43.043Z,41.75
2018-12-19T14:19:11.260Z,30.00
2018-12-19T14:21:39.451Z,26.23
2018-12-19T14:24:07.644Z,23.20
2018-12-19T14:26:35.848Z,20.95
2018-12-19T14:29:04.123Z,23.52
2018-12-19T14:31:32.335Z,24.52
2018-12-19T14:34:00.560Z,38.58
2018-12-19T14:36:28.768Z,37.65
2018-12-19T14:38:56.970Z,35.05
2018-12-19T14:41:25.180Z,39.08
2018-12-19T14:43:53.376Z,37.23
2018-12-19T14:46:21.609Z,39.00
2018-12-19T14:48:49.798Z,36.30
2018-12-19T14:51:17.999Z,35.52
2018-12-19T14:53:46.244Z,30.43
2018-12-19T14:56:14.573Z,38.60
2018-12-19T14:58:42.820Z,34.90
2018-12-19T15:01:11.091Z,39.83
2018-12-19T15:03:39.280Z,36.43
2018-12-19T15:06:07.476Z,43.50
2018-12-19T15:08:35.655Z,37.50
2018-12-19T15:11:03.944Z,41.45
2018-12-19T15:13:32.176Z,34.65
2018-12-19T15:16:03.570Z,40.63
2018-12-19T15:18:31.852Z,42.98
2018-12-19T15:21:00.158Z,36.53
2018-12-19T15:23:28.362Z,43.55
2018-12-19T15:25:56.736Z,36.50
2018-12-19T15:28:24.966Z,47.30
2018-12-19T15:30:53.144Z,35.95
2018-12-19T15:33:21.334Z,39.95
2018-12-19T15:35:49.624Z,37.87
2018-12-19T15:38:17.935Z,33.55
2018-12-19T15:40:46.192Z,36.68
2018-12-19T15:43:14.396Z,38.05
2018-12-19T15:45:42.611Z,33.53
2018-12-19T15:48:10.826Z,29.92
2018-12-19T15:50:39.100Z,28.90
2018-12-19T15:53:07.364Z,35.50
2018-12-19T15:55:35.569Z,39.65
2018-12-19T15:58:03.835Z,35.90
2018-12-19T16:00:32.048Z,33.23
2018-12-19T16:03:00.272Z,33.98
2018-12-19T16:05:28.496Z,35.10
2018-12-19T16:07:56.769Z,36.10
2018-12-19T16:10:24.985Z,34.58
2018-12-19T16:12:53.156Z,33.50
2018-12-19T16:15:21.356Z,31.10
2018-12-19T16:17:49.544Z,35.73
2018-12-19T16:20:17.728Z,24.90
2018-12-19T16:22:45.923Z,25.43
2018-12-19T16:25:14.104Z,27.75
2018-12-19T16:27:42.288Z,31.85
2018-12-19T16:30:10.688Z,30.47
2018-12-19T16:32:38.961Z,22.70
2018-12-19T16:35:07.408Z,27.87
2018-12-19T16:37:35.651Z,28.12
2018-12-19T16:40:04.233Z,39.80
2018-12-19T16:42:32.429Z,44.77
2018-12-19T16:45:00.632Z,37.30
2018-12-19T16:47:28.858Z,40.65
2018-12-19T16:49:57.048Z,33.63
2018-12-19T16:52:25.384Z,37.80
2018-12-19T16:54:53.580Z,56.98
2018-12-19T16:57:21.782Z,43.42
2018-12-19T16:59:49.969Z,35.73
2018-12-19T17:02:18.160Z,30.00
2018-12-19T17:04:46.349Z,43.60
2018-12-19T17:07:14.626Z,35.13
2018-12-19T17:09:42.901Z,31.20
2018-12-19T17:12:11.163Z,36.28
2018-12-19T17:14:39.352Z,40.83
2018-12-19T17:17:07.533Z,26.17
2018-12-19T17:19:35.716Z,29.17
2018-12-19T17:22:03.984Z,27.07
2018-12-19T17:24:37.575Z,43.23
2018-12-19T17:27:05.830Z,37.97
2018-12-19T17:29:34.020Z,40.73
2018-12-19T17:32:02.475Z,38.73
2018-12-19T17:34:30.699Z,30.03
2018-12-19T17:36:58.886Z,25.97
2018-12-19T17:39:27.063Z,30.53
2018-12-19T17:41:55.240Z,25.20
2018-12-19T17:44:23.436Z,33.87
2018-12-19T17:46:51.616Z,31.20
2018-12-19T17:49:19.801Z,45.40
2018-12-19T17:51:47.984Z,99.53
2018-12-19T17:54:16.165Z,94.20
2018-12-19T17:56:44.359Z,70.40
2018-12-19T17:59:12.541Z,57.20
2018-12-19T18:01:40.850Z,51.40
2018-12-19T18:04:09.124Z,44.80
2018-12-19T18:06:37.468Z,42.47
2018-12-19T18:09:06.762Z,39.30
2018-12-19T18:11:35.003Z,38.73
2018-12-19T18:14:03.349Z,37.37
2018-12-19T20:58:51.596Z,26.63
2018-12-19T21:01:19.961Z,31.40
2018-12-19T21:03:48.312Z,25.00
2018-12-19T21:06:16.496Z,22.67
2018-12-19T21:08:44.681Z,25.13
2018-12-19T21:11:12.877Z,22.90
2018-12-19T21:13:46.698Z,21.03
2018-12-19T21:16:11.248Z,34.35
2018-12-19T21:18:45.751Z,32.95
2018-12-19T21:21:14.752Z,32.80
2018-12-19T21:23:42.967Z,33.90
2018-12-19T21:26:11.172Z,33.05
2018-12-19T21:28:39.368Z,35.10
2018-12-19T21:31:07.601Z,33.10
2018-12-19T21:33:35.777Z,35.73
2018-12-19T21:36:04.187Z,38.30
2018-12-19T21:38:32.403Z,36.15
2018-12-19T21:41:00.668Z,31.17
2018-12-19T21:43:28.888Z,29.77
2018-12-19T21:45:57.087Z,37.48
2018-12-19T21:48:25.271Z,36.05
2018-12-19T21:50:53.464Z,33.53
2018-12-19T21:53:21.761Z,27.50
2018-12-19T21:55:50.074Z,28.80
2018-12-19T21:58:18.372Z,25.57
2018-12-19T22:00:46.554Z,24.70
2018-12-19T22:03:14.744Z,22.70
2018-12-19T22:05:43.193Z,21.70
2018-12-19T22:08:11.472Z,25.50
2018-12-19T22:10:39.726Z,23.10
2018-12-19T22:13:08.032Z,31.02
2018-12-19T22:15:36.389Z,29.23
2018-12-19T22:18:09.991Z,29.12
2018-12-19T22:20:38.187Z,29.10
2018-12-19T22:23:06.617Z,31.80
2018-12-19T22:25:34.940Z,34.33
2018-12-19T22:28:03.139Z,26.45
2018-12-19T22:30:31.327Z,27.62
2018-12-19T22:32:59.536Z,28.23
2018-12-19T22:35:27.856Z,26.80
2018-12-19T22:37:56.122Z,28.20
2018-12-19T22:40:24.388Z,31.50
2018-12-19T22:42:52.568Z,29.70
2018-12-19T22:45:20.920Z,26.48
2018-12-19T22:47:49.182Z,30.92
2018-12-19T22:50:17.499Z,31.87
2018-12-19T22:52:45.766Z,31.25
2018-12-19T22:55:14.087Z,31.93
2018-12-19T22:57:42.315Z,35.03
2018-12-19T23:00:16.557Z,30.62
2018-12-19T23:02:51.274Z,31.17
2018-12-19T23:05:25.362Z,29.90
2018-12-19T23:07:53.773Z,29.03
2018-12-19T23:10:22.017Z,34.38
2018-12-19T23:12:50.267Z,30.30
2018-12-19T23:15:20.107Z,29.37
2018-12-19T23:17:48.448Z,32.10
2018-12-19T23:20:16.770Z,30.02
2018-12-19T23:22:45.087Z,30.97
2018-12-19T23:25:13.441Z,33.45
2018-12-19T23:27:41.644Z,28.20
2018-12-19T23:30:10.014Z,27.60
2018-12-19T23:32:38.331Z,27.60
2018-12-19T23:35:06.684Z,26.12
2018-12-19T23:37:34.928Z,29.90
2018-12-19T23:40:03.477Z,26.37
2018-12-19T23:42:31.668Z,28.80
2018-12-19T23:44:59.989Z,26.25
2018-12-19T23:47:28.256Z,24.10
2018-12-19T23:49:56.454Z,22.07
2018-12-19T23:52:24.721Z,26.93
2018-12-19T23:54:52.919Z,26.02
2018-12-19T23:57:21.118Z,22.37
2018-12-19T23:59:49.388Z,26.10
